Time;durP1;ratioP1;P1;durP2;ratioP2;P2;SDS_P1;SDS_P2;PMS_P1;PMS_P2;Temp;Humidity;BMP_temperature;BMP_pressure;BME280_temperature;BME280_humidity;BME280_pressure;Samples;Min_cycle;Max_cycle;Signal;HPM_P1;HPM_P2
2023/03/31 00:01:03;;;;;;;;;;;17.20;67.20;;;;;;5037670;28;1548;-70
2023/03/31 00:03:28;;;;;;;;;;;17.20;67.20;;;;;;5038634;28;943;-70
2023/03/31 00:05:57;;;;;;;;;;;17.20;67.20;;;;;;5035619;28;1223;-69
2023/03/31 00:08:23;;;;;;;;;;;17.20;67.20;;;;;;5034648;28;1890;-70
2023/03/31 00:10:49;;;;;;;;;;;17.20;67.20;;;;;;5037661;28;892;-70
2023/03/31 00:13:14;;;;;;;;;;;17.20;67.20;;;;;;5073731;28;794;-69
2023/03/31 00:15:40;;;;;;;;;;;17.20;67.20;;;;;;5041791;28;1388;-69
2023/03/31 00:18:05;;;;;;;;;;;17.20;67.20;;;;;;5041464;28;896;-70
2023/03/31 00:20:32;;;;;;;;;;;17.20;67.20;;;;;;5038431;28;1355;-70
2023/03/31 00:22:58;;;;;;;;;;;17.10;67.20;;;;;;5041958;28;1442;-70
2023/03/31 00:25:23;;;;;;;;;;;17.20;67.20;;;;;;5048004;28;1414;-69
2023/03/31 00:27:49;;;;;;;;;;;17.10;67.20;;;;;;5039507;28;1936;-70
2023/03/31 00:30:14;;;;;;;;;;;17.20;67.20;;;;;;5044123;28;1405;-70
2023/03/31 00:32:40;;;;;;;;;;;17.10;67.20;;;;;;5048238;28;1424;-69
2023/03/31 00:35:06;;;;;;;;;;;17.20;67.30;;;;;;5038469;28;1315;-70
2023/03/31 00:37:34;;;;;;;;;;;17.10;67.20;;;;;;5042005;28;1468;-69
2023/03/31 00:39:59;;;;;;;;;;;17.10;67.20;;;;;;5042196;28;1460;-69
2023/03/31 00:42:25;;;;;;;;;;;17.10;67.20;;;;;;5040950;28;1335;-69
2023/03/31 00:45:09;;;;;;;;;;;17.10;67.20;;;;;;5042596;28;1373;-69
2023/03/31 00:47:34;;;;;;;;;;;17.10;67.30;;;;;;5040705;28;1067;-70
2023/03/31 00:50:00;;;;;;;;;;;17.10;67.20;;;;;;5036078;28;1969;-70
2023/03/31 00:52:34;;;;;;;;;;;17.10;67.20;;;;;;5070800;28;837;-70
2023/03/31 00:55:07;;;;;;;;;;;17.10;67.20;;;;;;5036425;28;1373;-70
2023/03/31 00:57:35;;;;;;;;;;;17.10;67.20;;;;;;5070721;28;826;-70
2023/03/31 01:00:13;;;;;;;;;;;17.10;67.30;;;;;;5040686;28;1208;-70
2023/03/31 01:02:40;;;;;;;;;;;17.10;67.20;;;;;;5068120;28;875;-70
2023/03/31 01:05:07;;;;;;;;;;;17.10;67.30;;;;;;5039495;28;1358;-70
2023/03/31 01:07:42;;;;;;;;;;;17.10;67.30;;;;;;5036397;28;860;-70
2023/03/31 01:10:07;;;;;;;;;;;17.10;67.30;;;;;;5046902;28;947;-70
2023/03/31 01:12:33;;;;;;;;;;;17.10;67.30;;;;;;5069696;28;944;-70
2023/03/31 01:14:58;;;;;;;;;;;17.10;67.30;;;;;;5045829;28;1455;-70
2023/03/31 01:17:27;;;;;;;;;;;17.10;67.30;;;;;;5036426;28;1010;-70
2023/03/31 01:20:13;;;;;;;;;;;17.10;67.30;;;;;;5038806;28;1125;-70
2023/03/31 01:22:58;;;;;;;;;;;17.10;67.30;;;;;;5036163;28;943;-70
2023/03/31 01:25:44;;;;;;;;;;;17.10;67.30;;;;;;5041316;28;1256;-70
2023/03/31 01:28:19;;;;;;;;;;;17.10;67.30;;;;;;5045142;28;1955;-70
2023/03/31 01:30:44;;;;;;;;;;;17.10;68.10;;;;;;5040397;28;891;-70
2023/03/31 01:33:10;;;;;;;;;;;17.10;67.40;;;;;;5044926;28;1580;-70
2023/03/31 01:35:41;;;;;;;;;;;17.10;67.30;;;;;;5043973;28;1260;-70
2023/03/31 01:38:16;;;;;;;;;;;17.10;67.40;;;;;;5046223;28;1469;-70
2023/03/31 01:40:44;;;;;;;;;;;17.10;67.40;;;;;;5042227;28;1409;-70
2023/03/31 01:43:13;;;;;;;;;;;17.10;67.40;;;;;;5073255;28;872;-70
2023/03/31 01:45:57;;;;;;;;;;;17.10;67.40;;;;;;5073129;28;1283;-71
2023/03/31 01:48:35;;;;;;;;;;;17.10;67.40;;;;;;5050335;28;1898;-71
2023/03/31 01:51:17;;;;;;;;;;;17.10;67.40;;;;;;5046947;28;1176;-70
2023/03/31 01:54:01;;;;;;;;;;;17.10;67.40;;;;;;5075350;28;1093;-70
2023/03/31 01:56:37;;;;;;;;;;;17.10;67.40;;;;;;5039304;28;832;-71
2023/03/31 01:59:07;;;;;;;;;;;17.10;67.40;;;;;;5043004;28;1101;-70
2023/03/31 02:01:42;;;;;;;;;;;17.10;67.40;;;;;;5075099;28;914;-70
2023/03/31 02:04:16;;;;;;;;;;;17.10;67.40;;;;;;5057302;28;1335;-70
2023/03/31 02:06:42;;;;;;;;;;;17.10;67.40;;;;;;5074342;28;867;-70
2023/03/31 02:09:09;;;;;;;;;;;17.10;67.40;;;;;;5050207;28;1969;-71
2023/03/31 02:11:35;;;;;;;;;;;17.10;67.40;;;;;;5041730;28;800;-71
2023/03/31 02:14:00;;;;;;;;;;;17.10;67.40;;;;;;5040481;28;1485;-72
2023/03/31 02:16:26;;;;;;;;;;;17.10;67.40;;;;;;5042802;28;1050;-71
2023/03/31 02:18:53;;;;;;;;;;;17.10;67.40;;;;;;5047499;28;820;-71
2023/03/31 02:21:18;;;;;;;;;;;17.10;67.40;;;;;;5042215;28;975;-69
2023/03/31 02:23:44;;;;;;;;;;;17.10;67.50;;;;;;5077482;28;1018;-69
2023/03/31 02:26:13;;;;;;;;;;;17.10;67.40;;;;;;5073839;28;1381;-70
2023/03/31 02:28:38;;;;;;;;;;;17.10;67.50;;;;;;5074632;28;1894;-70
2023/03/31 02:31:07;;;;;;;;;;;17.10;67.50;;;;;;5039448;28;896;-69
2023/03/31 02:33:32;;;;;;;;;;;17.10;67.40;;;;;;5039475;28;958;-70
2023/03/31 02:35:58;;;;;;;;;;;17.10;67.40;;;;;;5041534;28;1359;-70
2023/03/31 02:38:24;;;;;;;;;;;17.10;67.50;;;;;;5032778;28;1163;-70
2023/03/31 02:40:49;;;;;;;;;;;17.10;67.50;;;;;;5041575;28;1238;-70
2023/03/31 02:43:15;;;;;;;;;;;17.10;67.50;;;;;;5057800;28;1396;-70
2023/03/31 02:45:42;;;;;;;;;;;17.10;67.40;;;;;;5039481;28;1346;-70
2023/03/31 02:48:20;;;;;;;;;;;17.10;67.50;;;;;;5074372;28;1913;-70
2023/03/31 02:50:48;;;;;;;;;;;17.10;67.50;;;;;;5040520;28;863;-70
2023/03/31 02:53:17;;;;;;;;;;;17.10;67.50;;;;;;5036972;28;872;-70
2023/03/31 02:55:52;;;;;;;;;;;17.10;67.50;;;;;;5048939;28;1343;-71
2023/03/31 02:58:36;;;;;;;;;;;17.10;67.50;;;;;;5042202;28;907;-72
2023/03/31 03:01:20;;;;;;;;;;;17.10;67.50;;;;;;5039281;28;829;-72
2023/03/31 03:03:49;;;;;;;;;;;17.10;67.50;;;;;;5040391;28;899;-70
2023/03/31 03:06:36;;;;;;;;;;;17.10;67.50;;;;;;5041329;28;1719;-71
2023/03/31 03:09:17;;;;;;;;;;;17.10;67.50;;;;;;5040015;28;1917;-71
2023/03/31 03:11:54;;;;;;;;;;;17.10;67.50;;;;;;5042166;28;840;-69
2023/03/31 03:14:26;;;;;;;;;;;17.10;67.50;;;;;;5040496;28;1279;-69
2023/03/31 03:16:53;;;;;;;;;;;17.10;67.50;;;;;;5038001;28;1081;-69
2023/03/31 03:19:19;;;;;;;;;;;17.10;67.50;;;;;;5047683;28;880;-69
2023/03/31 03:21:46;;;;;;;;;;;17.10;67.50;;;;;;5076753;28;1027;-69
2023/03/31 03:24:12;;;;;;;;;;;17.10;67.50;;;;;;5058879;28;1337;-69
2023/03/31 03:26:38;;;;;;;;;;;17.10;67.50;;;;;;5040622;28;803;-69
2023/03/31 03:29:04;;;;;;;;;;;17.10;67.50;;;;;;5040062;28;1906;-70
2023/03/31 03:31:32;;;;;;;;;;;17.10;67.50;;;;;;5040832;28;1022;-70
2023/03/31 03:33:58;;;;;;;;;;;17.10;67.50;;;;;;5037123;28;1375;-70
2023/03/31 03:36:23;;;;;;;;;;;17.10;67.50;;;;;;5047654;28;1014;-70
2023/03/31 03:38:49;;;;;;;;;;;17.10;67.50;;;;;;5043984;28;1357;-70
2023/03/31 03:41:15;;;;;;;;;;;17.10;67.50;;;;;;5027587;28;1378;-70
2023/03/31 03:43:40;;;;;;;;;;;17.10;67.50;;;;;;5040511;28;1171;-71
2023/03/31 03:46:06;;;;;;;;;;;17.10;67.50;;;;;;5071036;28;1272;-71
2023/03/31 03:48:31;;;;;;;;;;;17.10;67.50;;;;;;5040050;28;1997;-72
2023/03/31 03:51:00;;;;;;;;;;;17.10;67.50;;;;;;5039951;28;887;-71
2023/03/31 03:53:25;;;;;;;;;;;17.10;67.60;;;;;;5039458;28;846;-72
2023/03/31 03:55:51;;;;;;;;;;;17.10;67.50;;;;;;5039543;28;1355;-71
2023/03/31 03:58:17;;;;;;;;;;;17.10;67.50;;;;;;5040459;28;962;-69
2023/03/31 04:00:44;;;;;;;;;;;17.10;67.50;;;;;;5040322;28;884;-70
2023/03/31 04:03:09;;;;;;;;;;;17.10;67.50;;;;;;5040905;28;1044;-69
2023/03/31 04:05:35;;;;;;;;;;;17.10;67.60;;;;;;5036781;28;1344;-69
2023/03/31 04:08:01;;;;;;;;;;;17.10;67.50;;;;;;5040797;28;1907;-69
2023/03/31 04:10:27;;;;;;;;;;;17.10;67.50;;;;;;5038898;28;865;-69
2023/03/31 04:12:52;;;;;;;;;;;17.10;67.50;;;;;;5042506;28;823;-69
2023/03/31 04:15:18;;;;;;;;;;;17.10;67.40;;;;;;5038941;28;1271;-69
2023/03/31 04:17:49;;;;;;;;;;;17.10;67.30;;;;;;5040884;28;891;-69
2023/03/31 04:20:15;;;;;;;;;;;17.20;67.30;;;;;;5072452;28;847;-69
2023/03/31 04:22:40;;;;;;;;;;;17.20;67.20;;;;;;5037525;28;1319;-68
2023/03/31 04:25:09;;;;;;;;;;;17.20;67.00;;;;;;5040980;28;1251;-70
2023/03/31 04:27:35;;;;;;;;;;;17.20;66.90;;;;;;5039046;28;895;-72
2023/03/31 04:30:00;;;;;;;;;;;17.30;66.90;;;;;;5040958;28;1898;-71
2023/03/31 04:32:27;;;;;;;;;;;17.30;66.80;;;;;;5037275;28;888;-70
2023/03/31 04:35:01;;;;;;;;;;;17.30;66.70;;;;;;5035172;28;1367;-71
2023/03/31 04:37:33;;;;;;;;;;;17.30;66.60;;;;;;5043073;28;950;-70
2023/03/31 04:40:08;;;;;;;;;;;17.30;67.20;;;;;;5068845;28;1266;-70
2023/03/31 04:42:34;;;;;;;;;;;17.40;66.40;;;;;;5034379;28;1745;-69
2023/03/31 04:45:00;;;;;;;;;;;17.40;66.40;;;;;;5044578;28;2027;-70
2023/03/31 04:47:25;;;;;;;;;;;17.40;66.30;;;;;;5040089;28;1282;-70
2023/03/31 04:49:50;;;;;;;;;;;17.40;66.20;;;;;;5035828;28;1961;-72
2023/03/31 04:52:16;;;;;;;;;;;17.50;66.20;;;;;;5039437;28;844;-75
2023/03/31 04:54:41;;;;;;;;;;;17.50;66.10;;;;;;5036387;28;1213;-69
2023/03/31 04:57:07;;;;;;;;;;;17.50;66.10;;;;;;5038123;28;1295;-73
2023/03/31 04:59:32;;;;;;;;;;;17.50;66.00;;;;;;5036014;28;1631;-71
2023/03/31 05:01:58;;;;;;;;;;;17.50;66.00;;;;;;5041965;28;1393;-72
2023/03/31 05:04:23;;;;;;;;;;;17.50;65.90;;;;;;5071847;28;1311;-72
2023/03/31 05:06:49;;;;;;;;;;;17.50;65.90;;;;;;5058466;28;1806;-71
2023/03/31 05:09:15;;;;;;;;;;;17.60;65.90;;;;;;5041871;28;1914;-72
2023/03/31 05:11:40;;;;;;;;;;;17.50;65.80;;;;;;5041561;28;844;-73
2023/03/31 05:14:06;;;;;;;;;;;17.60;65.80;;;;;;5034134;28;1265;-72
2023/03/31 05:16:31;;;;;;;;;;;17.60;65.80;;;;;;5038863;28;812;-73
2023/03/31 05:18:57;;;;;;;;;;;17.60;65.80;;;;;;5037631;28;796;-73
2023/03/31 05:21:22;;;;;;;;;;;17.50;65.70;;;;;;5070254;28;922;-73
2023/03/31 05:23:48;;;;;;;;;;;17.60;65.70;;;;;;5044271;28;796;-72
2023/03/31 05:26:14;;;;;;;;;;;17.60;65.70;;;;;;5038635;28;1296;-75
2023/03/31 05:28:40;;;;;;;;;;;17.60;65.70;;;;;;5040841;28;1969;-75
2023/03/31 05:31:06;;;;;;;;;;;17.60;65.70;;;;;;5042980;28;801;-74
2023/03/31 05:33:31;;;;;;;;;;;17.60;65.70;;;;;;5037869;28;931;-73
2023/03/31 05:35:58;;;;;;;;;;;17.60;65.60;;;;;;5042562;28;1362;-68
2023/03/31 05:38:27;;;;;;;;;;;17.60;65.60;;;;;;5039373;28;1557;-68
2023/03/31 05:40:53;;;;;;;;;;;17.60;66.40;;;;;;5041494;28;1008;-68
2023/03/31 05:43:18;;;;;;;;;;;17.60;65.60;;;;;;5036855;28;970;-68
2023/03/31 05:45:44;;;;;;;;;;;17.60;65.70;;;;;;5039285;28;1234;-67
2023/03/31 05:48:09;;;;;;;;;;;17.60;65.70;;;;;;5037931;28;1906;-67
2023/03/31 05:50:35;;;;;;;;;;;17.60;65.70;;;;;;5042484;28;1270;-67
2023/03/31 05:53:00;;;;;;;;;;;17.60;65.70;;;;;;5040498;28;902;-69
2023/03/31 05:55:26;;;;;;;;;;;17.60;65.70;;;;;;5038722;28;1224;-69
2023/03/31 05:57:51;;;;;;;;;;;17.60;65.70;;;;;;5038447;28;998;-75
2023/03/31 06:00:17;;;;;;;;;;;17.60;65.70;;;;;;5035070;28;1213;-73
2023/03/31 06:02:43;;;;;;;;;;;17.60;65.80;;;;;;5045936;28;903;-73
2023/03/31 06:05:08;;;;;;;;;;;17.60;65.80;;;;;;5071652;28;1355;-74
2023/03/31 06:07:34;;;;;;;;;;;17.60;65.80;;;;;;5068301;28;1094;-74
2023/03/31 06:10:00;;;;;;;;;;;17.60;65.80;;;;;;5070399;28;1969;-73
2023/03/31 06:12:25;;;;;;;;;;;17.50;65.80;;;;;;5044222;28;1293;-73
2023/03/31 06:14:51;;;;;;;;;;;17.50;65.80;;;;;;5043008;28;1287;-73
2023/03/31 06:17:16;;;;;;;;;;;17.50;65.80;;;;;;5042675;28;1214;-67
2023/03/31 06:19:41;;;;;;;;;;;17.50;65.80;;;;;;5042513;28;867;-73
2023/03/31 06:22:07;;;;;;;;;;;17.50;65.90;;;;;;5040672;28;775;-72
2023/03/31 06:24:32;;;;;;;;;;;17.50;65.90;;;;;;5040692;28;1254;-73
2023/03/31 06:26:59;;;;;;;;;;;17.50;65.90;;;;;;5073735;28;867;-72
2023/03/31 06:29:26;;;;;;;;;;;17.50;66.00;;;;;;5041623;28;1898;-70
2023/03/31 06:31:51;;;;;;;;;;;17.50;66.00;;;;;;5041832;28;859;-73
2023/03/31 06:34:17;;;;;;;;;;;17.50;66.00;;;;;;5073564;28;1353;-70
2023/03/31 06:36:42;;;;;;;;;;;17.50;66.00;;;;;;5035287;28;997;-70
2023/03/31 06:39:07;;;;;;;;;;;17.50;66.00;;;;;;5039804;28;1255;-68
2023/03/31 06:41:33;;;;;;;;;;;17.50;66.00;;;;;;5042994;28;1227;-69
2023/03/31 06:43:58;;;;;;;;;;;17.50;66.10;;;;;;5040976;28;1277;-70
2023/03/31 06:46:24;;;;;;;;;;;17.50;66.10;;;;;;5038963;28;908;-71
2023/03/31 06:48:49;;;;;;;;;;;17.50;66.10;;;;;;5038807;28;1906;-70
2023/03/31 06:51:15;;;;;;;;;;;17.50;66.10;;;;;;5041277;28;904;-70
2023/03/31 06:53:40;;;;;;;;;;;17.50;66.20;;;;;;5040044;28;895;-69
2023/03/31 06:56:06;;;;;;;;;;;17.50;66.20;;;;;;5042495;28;1373;-70
2023/03/31 06:58:31;;;;;;;;;;;17.50;66.20;;;;;;5040319;28;872;-70
2023/03/31 07:00:57;;;;;;;;;;;17.40;66.10;;;;;;5044580;28;883;-70
2023/03/31 07:03:23;;;;;;;;;;;17.40;66.20;;;;;;5041512;28;982;-70
2023/03/31 07:05:52;;;;;;;;;;;17.40;66.20;;;;;;5040993;28;1271;-70
2023/03/31 07:08:18;;;;;;;;;;;17.40;66.20;;;;;;5041462;28;1969;-71
2023/03/31 07:10:47;;;;;;;;;;;17.40;66.20;;;;;;5068861;28;849;-69
2023/03/31 07:13:15;;;;;;;;;;;17.40;66.20;;;;;;5039594;28;903;-69
2023/03/31 07:15:41;;;;;;;;;;;17.40;66.30;;;;;;5041258;28;1278;-70
2023/03/31 07:18:07;;;;;;;;;;;17.40;66.30;;;;;;5073971;28;958;-70
2023/03/31 07:20:33;;;;;;;;;;;17.40;66.30;;;;;;5043341;28;1240;-70
2023/03/31 07:22:58;;;;;;;;;;;17.40;66.30;;;;;;5043231;28;772;-71
2023/03/31 07:25:24;;;;;;;;;;;17.40;66.40;;;;;;5041255;28;1248;-71
2023/03/31 07:27:49;;;;;;;;;;;17.40;66.40;;;;;;5072024;28;820;-69
2023/03/31 07:30:16;;;;;;;;;;;17.40;66.40;;;;;;5043948;28;1906;-70
2023/03/31 07:32:41;;;;;;;;;;;17.40;66.40;;;;;;5044563;28;1110;-69
2023/03/31 07:35:07;;;;;;;;;;;17.40;66.40;;;;;;5037779;28;1295;-67
2023/03/31 07:37:40;;;;;;;;;;;17.40;66.40;;;;;;5037690;28;1305;-67
2023/03/31 07:40:05;;;;;;;;;;;17.40;66.40;;;;;;5041307;28;1351;-67
2023/03/31 07:42:31;;;;;;;;;;;17.40;66.50;;;;;;5040945;28;959;-67
2023/03/31 07:44:57;;;;;;;;;;;17.40;66.50;;;;;;5042691;28;1373;-67
2023/03/31 07:47:23;;;;;;;;;;;17.40;66.50;;;;;;5040984;28;908;-67
2023/03/31 07:49:49;;;;;;;;;;;17.40;66.50;;;;;;5073143;28;1983;-67
2023/03/31 07:52:14;;;;;;;;;;;17.30;66.50;;;;;;5039153;28;911;-67
2023/03/31 07:54:40;;;;;;;;;;;17.30;66.50;;;;;;5039646;28;1361;-68
2023/03/31 07:57:07;;;;;;;;;;;17.30;66.70;;;;;;5047477;28;944;-68
2023/03/31 07:59:32;;;;;;;;;;;17.40;66.70;;;;;;5038551;28;843;-68
2023/03/31 08:01:58;;;;;;;;;;;17.30;66.60;;;;;;5047525;28;812;-70
2023/03/31 08:04:23;;;;;;;;;;;17.30;66.60;;;;;;5038487;28;1316;-70
2023/03/31 08:06:50;;;;;;;;;;;17.30;66.60;;;;;;5043863;28;1193;-70
2023/03/31 08:09:17;;;;;;;;;;;17.30;66.60;;;;;;5048269;28;1977;-69
2023/03/31 08:11:43;;;;;;;;;;;17.30;66.60;;;;;;5046492;28;891;-69
2023/03/31 08:14:08;;;;;;;;;;;17.30;66.60;;;;;;5026238;28;1849;-68
2023/03/31 08:16:34;;;;;;;;;;;17.30;66.60;;;;;;5037927;28;840;-69
2023/03/31 08:19:00;;;;;;;;;;;17.30;66.60;;;;;;5041690;28;1220;-70
2023/03/31 08:21:27;;;;;;;;;;;17.30;66.70;;;;;;5044161;28;871;-68
2023/03/31 08:23:53;;;;;;;;;;;17.30;66.70;;;;;;5038913;28;1288;-68
2023/03/31 08:26:20;;;;;;;;;;;17.30;66.70;;;;;;5041694;28;1258;-71
2023/03/31 08:28:47;;;;;;;;;;;17.30;66.70;;;;;;5036339;28;1967;-70
2023/03/31 08:31:15;;;;;;;;;;;17.30;66.70;;;;;;5062430;28;1221;-69
2023/03/31 08:33:40;;;;;;;;;;;17.30;66.70;;;;;;5047268;28;816;-69
2023/03/31 08:36:07;;;;;;;;;;;17.30;67.40;;;;;;5038477;28;1266;-69
2023/03/31 08:38:37;;;;;;;;;;;17.30;66.70;;;;;;5073791;28;1448;-70
2023/03/31 08:41:04;;;;;;;;;;;17.30;66.60;;;;;;5071229;28;1992;-70
2023/03/31 08:43:33;;;;;;;;;;;17.30;66.60;;;;;;5041840;28;2119;-69
2023/03/31 08:45:59;;;;;;;;;;;17.30;66.50;;;;;;5037008;28;1378;-69
2023/03/31 08:48:25;;;;;;;;;;;17.40;66.60;;;;;;5036434;28;1902;-69
2023/03/31 08:51:20;;;;;;;;;;;17.30;66.60;;;;;;5038053;28;876;-69
2023/03/31 08:53:48;;;;;;;;;;;17.40;66.60;;;;;;5030634;28;1307;-69
2023/03/31 08:56:15;;;;;;;;;;;17.40;66.60;;;;;;5034066;28;1259;-69
2023/03/31 08:58:43;;;;;;;;;;;17.40;66.60;;;;;;5038257;28;1013;-69
2023/03/31 09:01:12;;;;;;;;;;;17.40;66.50;;;;;;5038752;28;894;-69
2023/03/31 09:03:57;;;;;;;;;;;17.40;66.60;;;;;;5039470;28;884;-69
2023/03/31 09:06:34;;;;;;;;;;;17.40;66.50;;;;;;5066114;28;1080;-69
2023/03/31 09:09:00;;;;;;;;;;;17.40;66.60;;;;;;5037163;28;1906;-69
2023/03/31 09:11:31;;;;;;;;;;;17.40;66.60;;;;;;5036471;28;892;-69
2023/03/31 09:13:56;;;;;;;;;;;17.40;66.60;;;;;;5034477;28;1366;-69
2023/03/31 09:16:26;;;;;;;;;;;17.40;66.60;;;;;;5038984;28;879;-69
2023/03/31 09:18:52;;;;;;;;;;;17.40;66.60;;;;;;5037817;28;820;-69
2023/03/31 09:21:31;;;;;;;;;;;17.40;66.60;;;;;;5071152;28;856;-69
2023/03/31 09:24:02;;;;;;;;;;;17.40;66.70;;;;;;5039114;28;1359;-69
2023/03/31 09:26:37;;;;;;;;;;;17.40;66.60;;;;;;5037602;28;1049;-69
2023/03/31 09:29:03;;;;;;;;;;;17.30;66.50;;;;;;5038276;28;1972;-69
2023/03/31 09:31:28;;;;;;;;;;;17.40;66.70;;;;;;5040877;28;829;-70
2023/03/31 09:33:57;;;;;;;;;;;17.30;66.60;;;;;;5037256;28;1275;-69
2023/03/31 09:36:23;;;;;;;;;;;17.30;66.60;;;;;;5072370;28;871;-69
2023/03/31 09:38:48;;;;;;;;;;;17.30;66.60;;;;;;5041365;28;1433;-69
2023/03/31 09:41:14;;;;;;;;;;;17.30;66.60;;;;;;5038508;28;1050;-69
2023/03/31 09:43:40;;;;;;;;;;;17.30;66.70;;;;;;5068641;28;872;-69
2023/03/31 09:46:12;;;;;;;;;;;17.30;66.70;;;;;;5039688;28;1259;-69
2023/03/31 09:48:37;;;;;;;;;;;17.30;66.70;;;;;;5079164;28;1971;-69
2023/03/31 09:51:04;;;;;;;;;;;17.30;66.70;;;;;;5050087;28;952;-69
2023/03/31 09:53:32;;;;;;;;;;;17.30;66.70;;;;;;5073860;28;879;-70
2023/03/31 09:56:01;;;;;;;;;;;17.30;66.70;;;;;;5042377;28;1347;-70
2023/03/31 09:58:27;;;;;;;;;;;17.30;66.70;;;;;;5070855;28;835;-70
2023/03/31 10:01:15;;;;;;;;;;;17.30;66.70;;;;;;5045098;28;855;-69
2023/03/31 10:03:43;;;;;;;;;;;17.30;66.80;;;;;;5035952;28;1514;-69
2023/03/31 10:06:09;;;;;;;;;;;17.30;66.80;;;;;;5040380;28;1294;-70
2023/03/31 10:08:38;;;;;;;;;;;17.30;66.80;;;;;;5043404;28;1969;-70
2023/03/31 10:11:05;;;;;;;;;;;17.30;66.80;;;;;;5073959;28;1264;-70
2023/03/31 10:13:36;;;;;;;;;;;17.30;66.80;;;;;;5046447;28;1343;-70
2023/03/31 10:16:02;;;;;;;;;;;17.30;66.80;;;;;;5043182;28;1418;-70
2023/03/31 10:18:35;;;;;;;;;;;17.30;66.80;;;;;;5043055;28;1607;-68
2023/03/31 10:21:01;;;;;;;;;;;17.30;66.80;;;;;;5043008;28;1389;-69
2023/03/31 10:23:28;;;;;;;;;;;17.30;66.90;;;;;;5074691;28;1468;-68
2023/03/31 10:25:53;;;;;;;;;;;17.30;66.90;;;;;;5040987;28;1426;-68
2023/03/31 10:28:19;;;;;;;;;;;17.30;66.90;;;;;;5040811;28;1951;-70
2023/03/31 10:30:46;;;;;;;;;;;17.30;66.90;;;;;;5074934;28;1766;-70
2023/03/31 10:33:12;;;;;;;;;;;17.30;66.90;;;;;;5043658;28;1260;-70
2023/03/31 10:35:38;;;;;;;;;;;17.30;66.90;;;;;;5071697;28;1315;-70
2023/03/31 10:38:09;;;;;;;;;;;17.30;66.90;;;;;;5036023;28;1429;-69
2023/03/31 10:40:35;;;;;;;;;;;17.30;66.90;;;;;;5040294;28;896;-69
2023/03/31 10:43:14;;;;;;;;;;;17.30;67.00;;;;;;5040124;28;840;-69
2023/03/31 10:45:50;;;;;;;;;;;17.30;66.90;;;;;;5040012;28;1221;-69
2023/03/31 10:48:16;;;;;;;;;;;17.30;66.90;;;;;;5078159;28;2031;-68
2023/03/31 10:50:42;;;;;;;;;;;17.30;66.90;;;;;;5040001;28;1203;-69
2023/03/31 10:53:12;;;;;;;;;;;17.30;66.90;;;;;;5040941;28;1875;-69
2023/03/31 10:55:43;;;;;;;;;;;17.30;66.90;;;;;;5040015;28;2317;-69
2023/03/31 10:58:31;;;;;;;;;;;17.30;66.90;;;;;;5042422;28;1564;-69
2023/03/31 11:01:21;;;;;;;;;;;17.30;66.90;;;;;;5042846;28;1401;-69
2023/03/31 11:03:49;;;;;;;;;;;17.20;66.90;;;;;;5039009;28;2019;-70
2023/03/31 11:06:21;;;;;;;;;;;17.30;66.90;;;;;;5040250;28;1395;-70
2023/03/31 11:08:59;;;;;;;;;;;17.20;66.90;;;;;;5038563;28;1906;-70
2023/03/31 11:11:24;;;;;;;;;;;17.20;66.90;;;;;;5038470;28;966;-70
2023/03/31 11:13:53;;;;;;;;;;;17.20;66.90;;;;;;5039076;28;800;-70
2023/03/31 11:16:37;;;;;;;;;;;17.20;66.90;;;;;;5041538;28;833;-70
2023/03/31 11:19:08;;;;;;;;;;;17.30;67.00;;;;;;5040427;28;850;-70
2023/03/31 11:21:46;;;;;;;;;;;17.20;66.90;;;;;;5043043;28;845;-69
2023/03/31 11:24:31;;;;;;;;;;;17.20;67.00;;;;;;5037760;28;1346;-70
2023/03/31 11:27:15;;;;;;;;;;;17.20;67.00;;;;;;5039113;28;880;-70
2023/03/31 11:29:51;;;;;;;;;;;17.30;67.10;;;;;;5042280;28;1898;-69
2023/03/31 11:32:20;;;;;;;;;;;17.20;67.00;;;;;;5067590;28;835;-69
2023/03/31 11:35:04;;;;;;;;;;;17.20;67.00;;;;;;5036806;28;1560;-69
2023/03/31 11:37:34;;;;;;;;;;;17.20;67.10;;;;;;5041405;28;1412;-69
2023/03/31 11:40:04;;;;;;;;;;;17.20;67.00;;;;;;5042627;28;1282;-69
2023/03/31 11:42:34;;;;;;;;;;;17.20;67.10;;;;;;5039649;28;836;-69
2023/03/31 11:45:02;;;;;;;;;;;17.20;67.10;;;;;;5070111;28;1231;-69
2023/03/31 11:47:29;;;;;;;;;;;17.20;67.20;;;;;;5036591;28;797;-69
2023/03/31 11:49:55;;;;;;;;;;;17.20;67.10;;;;;;5038061;28;1963;-69
2023/03/31 11:52:26;;;;;;;;;;;17.20;67.10;;;;;;5038540;28;1195;-69
2023/03/31 11:54:53;;;;;;;;;;;17.20;67.90;;;;;;5047841;28;1237;-69
2023/03/31 11:57:20;;;;;;;;;;;17.20;67.10;;;;;;5038667;28;788;-69
2023/03/31 11:59:46;;;;;;;;;;;17.20;67.20;;;;;;5038537;28;974;-70
2023/03/31 12:02:30;;;;;;;;;;;17.20;67.20;;;;;;5056672;28;1355;-70
2023/03/31 12:04:56;;;;;;;;;;;17.20;67.20;;;;;;5039472;28;1366;-70
2023/03/31 12:07:22;;;;;;;;;;;17.20;67.20;;;;;;5071828;28;950;-70
2023/03/31 12:09:53;;;;;;;;;;;17.20;67.20;;;;;;5040214;28;1902;-70
2023/03/31 12:12:23;;;;;;;;;;;17.20;67.20;;;;;;5070035;28;895;-70
2023/03/31 12:14:50;;;;;;;;;;;17.20;67.20;;;;;;5037967;28;1299;-70
2023/03/31 12:17:21;;;;;;;;;;;17.20;67.20;;;;;;5073020;28;844;-70
2023/03/31 12:20:09;;;;;;;;;;;17.20;67.30;;;;;;5068291;28;899;-70
2023/03/31 12:22:38;;;;;;;;;;;17.20;67.20;;;;;;5035825;28;1120;-70
2023/03/31 12:25:04;;;;;;;;;;;17.20;67.20;;;;;;5040452;28;1333;-70
2023/03/31 12:27:29;;;;;;;;;;;17.20;67.20;;;;;;5039495;28;852;-72
2023/03/31 12:29:57;;;;;;;;;;;17.20;67.30;;;;;;5037967;28;1902;-69
2023/03/31 12:32:23;;;;;;;;;;;17.20;67.30;;;;;;5037636;28;2031;-70
2023/03/31 12:35:00;;;;;;;;;;;17.20;67.30;;;;;;5033574;28;1466;-68
2023/03/31 12:37:35;;;;;;;;;;;17.20;67.30;;;;;;5039526;28;1975;-69
2023/03/31 12:40:09;;;;;;;;;;;17.20;67.30;;;;;;5039071;28;2482;-69
2023/03/31 12:42:43;;;;;;;;;;;17.20;67.30;;;;;;5036347;28;1461;-69
2023/03/31 12:45:09;;;;;;;;;;;17.20;67.30;;;;;;5038396;28;1277;-69
2023/03/31 12:47:44;;;;;;;;;;;17.20;67.40;;;;;;5038991;28;1304;-69
2023/03/31 12:50:28;;;;;;;;;;;17.20;67.40;;;;;;5072815;28;1902;-69
2023/03/31 12:53:12;;;;;;;;;;;17.10;67.30;;;;;;5038729;28;928;-69
2023/03/31 12:55:38;;;;;;;;;;;17.20;67.40;;;;;;5039561;28;1264;-69
2023/03/31 12:58:28;;;;;;;;;;;17.20;67.40;;;;;;5040657;28;868;-69
2023/03/31 13:01:06;;;;;;;;;;;17.20;67.40;;;;;;5036350;28;1218;-70
2023/03/31 13:03:35;;;;;;;;;;;17.20;67.40;;;;;;5037969;28;832;-70
2023/03/31 13:06:01;;;;;;;;;;;17.20;67.40;;;;;;5037395;28;1239;-69
2023/03/31 13:08:45;;;;;;;;;;;17.10;67.40;;;;;;5037296;28;1902;-69
2023/03/31 13:11:11;;;;;;;;;;;17.10;67.40;;;;;;5037914;28;2119;-69
2023/03/31 13:13:39;;;;;;;;;;;17.20;67.40;;;;;;5071536;28;1479;-69
2023/03/31 13:16:05;;;;;;;;;;;17.20;67.50;;;;;;5040275;28;1476;-69
2023/03/31 13:18:30;;;;;;;;;;;17.10;67.40;;;;;;5057975;28;1209;-69
2023/03/31 13:21:00;;;;;;;;;;;17.20;67.50;;;;;;5068652;28;833;-69
2023/03/31 13:23:26;;;;;;;;;;;17.10;67.40;;;;;;5070491;28;872;-70
2023/03/31 13:25:52;;;;;;;;;;;17.10;67.40;;;;;;5072300;28;1343;-70
2023/03/31 13:28:20;;;;;;;;;;;17.20;67.50;;;;;;5037074;28;1956;-69
2023/03/31 13:30:50;;;;;;;;;;;17.20;67.50;;;;;;5038939;28;1301;-69
2023/03/31 13:33:42;;;;;;;;;;;17.20;67.50;;;;;;5040686;28;899;-69
2023/03/31 13:36:16;;;;;;;;;;;17.20;67.50;;;;;;5037858;28;1261;-69
2023/03/31 13:38:55;;;;;;;;;;;17.10;67.40;;;;;;5038098;28;1363;-69
2023/03/31 13:41:22;;;;;;;;;;;17.20;67.50;;;;;;5038241;28;1243;-69
2023/03/31 13:44:06;;;;;;;;;;;17.10;67.50;;;;;;5039919;28;899;-69
2023/03/31 13:46:50;;;;;;;;;;;17.10;67.50;;;;;;5044585;28;1473;-69
2023/03/31 13:49:35;;;;;;;;;;;17.10;67.40;;;;;;5040396;28;1956;-70
2023/03/31 13:52:02;;;;;;;;;;;17.10;67.50;;;;;;5037954;28;894;-69
2023/03/31 13:54:30;;;;;;;;;;;17.10;67.50;;;;;;5035178;28;1272;-69
2023/03/31 13:57:14;;;;;;;;;;;17.10;67.50;;;;;;5035215;28;1341;-69
2023/03/31 13:59:57;;;;;;;;;;;17.10;67.50;;;;;;5036988;28;1249;-70
2023/03/31 14:02:41;;;;;;;;;;;17.10;67.50;;;;;;5039301;28;916;-69
2023/03/31 14:05:19;;;;;;;;;;;17.10;67.50;;;;;;5038626;28;1323;-69
2023/03/31 14:07:49;;;;;;;;;;;17.10;67.50;;;;;;5046067;28;1111;-69
2023/03/31 14:10:26;;;;;;;;;;;17.10;67.50;;;;;;5068761;28;1909;-69
2023/03/31 14:12:51;;;;;;;;;;;17.10;67.50;;;;;;5072625;28;855;-70
2023/03/31 14:15:17;;;;;;;;;;;17.10;67.50;;;;;;5035094;28;1426;-70
2023/03/31 14:17:43;;;;;;;;;;;17.10;67.50;;;;;;5037383;28;835;-69
2023/03/31 14:20:17;;;;;;;;;;;17.10;67.50;;;;;;5072497;28;929;-70
2023/03/31 14:22:46;;;;;;;;;;;17.10;67.50;;;;;;5070499;28;843;-70
2023/03/31 14:25:20;;;;;;;;;;;17.10;67.50;;;;;;5038442;28;1768;-69
2023/03/31 14:28:01;;;;;;;;;;;17.10;67.60;;;;;;5037615;28;891;-69
2023/03/31 14:30:29;;;;;;;;;;;17.10;67.60;;;;;;5039005;28;1898;-69
2023/03/31 14:33:10;;;;;;;;;;;17.10;67.60;;;;;;5038397;28;857;-70
2023/03/31 14:36:11;;;;;;;;;;;17.10;67.60;;;;;;5040411;28;1296;-69
2023/03/31 14:38:36;;;;;;;;;;;17.10;67.60;;;;;;5009835;28;1385;-69
2023/03/31 14:41:02;;;;;;;;;;;17.10;67.60;;;;;;5063070;28;1365;-69
2023/03/31 14:43:34;;;;;;;;;;;17.10;67.60;;;;;;5039886;28;911;-69
2023/03/31 14:46:00;;;;;;;;;;;17.10;67.60;;;;;;5074031;28;1364;-69